Time;durP1;ratioP1;P1;durP2;ratioP2;P2;SDS_P1;SDS_P2;PMS_P1;PMS_P2;Temp;Humidity;BMP_temperature;BMP_pressure;BME280_temperature;BME280_humidity;BME280_pressure;Samples;Min_cycle;Max_cycle;Signal;HPM_P1;HPM_P2
2021/03/01 00:00:43;;;;;;;18.95;6.5;;;;;;;-2.12;49.40527;96488.15;;;;
2021/03/01 00:01:44;;;;;;;18.95;6.5;;;;;;;-2.12;49.40527;96488.15;;;;
2021/03/01 00:02:44;;;;;;;18.95;6.5;;;;;;;-2.12;49.40527;96488.15;;;;
2021/03/01 00:03:45;;;;;;;18.95;6.5;;;;;;;-2.12;49.40527;96488.15;;;;
2021/03/01 00:04:45;;;;;;;18.95;6.5;;;;;;;-2.12;49.40527;96488.15;;;;
2021/03/01 00:05:46;;;;;;;18.95;6.5;;;;;;;-2.12;49.40527;96488.15;;;;
2021/03/01 00:06:46;;;;;;;18.95;6.5;;;;;;;-2.12;49.40527;96488.15;;;;
2021/03/01 00:07:47;;;;;;;18.95;6.5;;;;;;;-2.12;49.40527;96488.15;;;;
2021/03/01 00:08:49;;;;;;;18.95;6.5;;;;;;;-2.12;49.40527;96488.15;;;;
2021/03/01 00:09:49;;;;;;;18.95;6.5;;;;;;;-2.12;49.40527;96488.15;;;;
2021/03/01 00:10:49;;;;;;;13.7;6.15;;;;;;;-2.22;49.56055;96478.91;;;;
2021/03/01 00:11:50;;;;;;;13.7;6.15;;;;;;;-2.22;49.56055;96478.91;;;;
2021/03/01 00:12:51;;;;;;;13.7;6.15;;;;;;;-2.22;49.56055;96478.91;;;;
2021/03/01 00:13:51;;;;;;;13.7;6.15;;;;;;;-2.22;49.56055;96478.91;;;;
2021/03/01 00:14:52;;;;;;;13.7;6.15;;;;;;;-2.22;49.56055;96478.91;;;;
2021/03/01 00:15:53;;;;;;;13.7;6.15;;;;;;;-2.22;49.56055;96478.91;;;;
2021/03/01 00:16:54;;;;;;;13.7;6.15;;;;;;;-2.22;49.56055;96478.91;;;;
2021/03/01 00:17:54;;;;;;;13.7;6.15;;;;;;;-2.22;49.56055;96478.91;;;;
2021/03/01 00:18:54;;;;;;;13.7;6.15;;;;;;;-2.22;49.56055;96478.91;;;;
2021/03/01 00:19:55;;;;;;;13.7;6.15;;;;;;;-2.22;49.56055;96478.91;;;;
2021/03/01 00:20:55;;;;;;;14.15;6.450001;;;;;;;-2.31;49.84375;96480.52;;;;
2021/03/01 00:21:56;;;;;;;14.15;6.450001;;;;;;;-2.31;49.84375;96480.52;;;;
2021/03/01 00:22:56;;;;;;;14.15;6.450001;;;;;;;-2.31;49.84375;96480.52;;;;
2021/03/01 00:23:57;;;;;;;14.15;6.450001;;;;;;;-2.31;49.84375;96480.52;;;;
2021/03/01 00:24:58;;;;;;;14.15;6.450001;;;;;;;-2.31;49.84375;96480.52;;;;
2021/03/01 00:25:58;;;;;;;14.15;6.450001;;;;;;;-2.31;49.84375;96480.52;;;;
2021/03/01 00:26:59;;;;;;;14.15;6.450001;;;;;;;-2.31;49.84375;96480.52;;;;
2021/03/01 00:27:59;;;;;;;14.15;6.450001;;;;;;;-2.31;49.84375;96480.52;;;;
2021/03/01 00:28:59;;;;;;;14.15;6.450001;;;;;;;-2.31;49.84375;96480.52;;;;
2021/03/01 00:30:00;;;;;;;14.15;6.450001;;;;;;;-2.31;49.84375;96480.52;;;;
2021/03/01 00:31:01;;;;;;;14.15;6.450001;;;;;;;-2.31;49.84375;96480.52;;;;
2021/03/01 00:32:02;;;;;;;9.25;5.2;;;;;;;-2.38;49.97168;96472.75;;;;
2021/03/01 00:33:03;;;;;;;9.25;5.2;;;;;;;-2.38;49.97168;96472.75;;;;
2021/03/01 00:34:04;;;;;;;9.25;5.2;;;;;;;-2.38;49.97168;96472.75;;;;
2021/03/01 00:35:05;;;;;;;9.25;5.2;;;;;;;-2.38;49.97168;96472.75;;;;
2021/03/01 00:36:08;;;;;;;9.25;5.2;;;;;;;-2.38;49.97168;96472.75;;;;
2021/03/01 00:37:08;;;;;;;9.25;5.2;;;;;;;-2.38;49.97168;96472.75;;;;
2021/03/01 00:38:09;;;;;;;9.25;5.2;;;;;;;-2.38;49.97168;96472.75;;;;
2021/03/01 00:39:10;;;;;;;9.25;5.2;;;;;;;-2.38;49.97168;96472.75;;;;
2021/03/01 00:40:10;;;;;;;9.25;5.2;;;;;;;-2.38;49.97168;96472.75;;;;
2021/03/01 00:41:11;;;;;;;9.25;5.2;;;;;;;-2.38;49.97168;96472.75;;;;
2021/03/01 00:42:11;;;;;;;11.1;5.649999;;;;;;;-2.38;50.08594;96472.33;;;;
2021/03/01 00:43:12;;;;;;;11.1;5.649999;;;;;;;-2.38;50.08594;96472.33;;;;
2021/03/01 00:44:12;;;;;;;11.1;5.649999;;;;;;;-2.38;50.08594;96472.33;;;;
2021/03/01 00:45:13;;;;;;;11.1;5.649999;;;;;;;-2.38;50.08594;96472.33;;;;
2021/03/01 00:46:14;;;;;;;11.1;5.649999;;;;;;;-2.38;50.08594;96472.33;;;;
2021/03/01 00:47:15;;;;;;;11.1;5.649999;;;;;;;-2.38;50.08594;96472.33;;;;
2021/03/01 00:48:15;;;;;;;11.1;5.649999;;;;;;;-2.38;50.08594;96472.33;;;;
2021/03/01 00:49:16;;;;;;;11.1;5.649999;;;;;;;-2.38;50.08594;96472.33;;;;
2021/03/01 00:50:16;;;;;;;11.1;5.649999;;;;;;;-2.38;50.08594;96472.33;;;;
2021/03/01 00:51:17;;;;;;;11.1;5.649999;;;;;;;-2.38;50.08594;96472.33;;;;
2021/03/01 00:52:17;;;;;;;11.1;5.649999;;;;;;;-2.38;50.08594;96472.33;;;;
2021/03/01 00:53:18;;;;;;;9.400001;5.3;;;;;;;-2.47;50.14941;96464.26;;;;
2021/03/01 00:54:21;;;;;;;9.400001;5.3;;;;;;;-2.47;50.14941;96464.26;;;;
2021/03/01 00:55:21;;;;;;;9.400001;5.3;;;;;;;-2.47;50.14941;96464.26;;;;
2021/03/01 00:56:22;;;;;;;9.400001;5.3;;;;;;;-2.47;50.14941;96464.26;;;;
2021/03/01 00:57:22;;;;;;;9.400001;5.3;;;;;;;-2.47;50.14941;96464.26;;;;
2021/03/01 00:58:23;;;;;;;9.400001;5.3;;;;;;;-2.47;50.14941;96464.26;;;;
2021/03/01 00:59:25;;;;;;;9.400001;5.3;;;;;;;-2.47;50.14941;96464.26;;;;
2021/03/01 01:00:25;;;;;;;9.400001;5.3;;;;;;;-2.47;50.14941;96464.26;;;;
2021/03/01 01:01:26;;;;;;;9.400001;5.3;;;;;;;-2.47;50.14941;96464.26;;;;
2021/03/01 01:02:26;;;;;;;9.400001;5.3;;;;;;;-2.47;50.14941;96464.26;;;;
2021/03/01 01:03:27;;;;;;;8.900001;5.3;;;;;;;-2.57;50.48145;96461.19;;;;
2021/03/01 01:04:27;;;;;;;8.900001;5.3;;;;;;;-2.57;50.48145;96461.19;;;;
2021/03/01 01:05:27;;;;;;;8.900001;5.3;;;;;;;-2.57;50.48145;96461.19;;;;
2021/03/01 01:06:28;;;;;;;8.900001;5.3;;;;;;;-2.57;50.48145;96461.19;;;;
2021/03/01 01:07:28;;;;;;;8.900001;5.3;;;;;;;-2.57;50.48145;96461.19;;;;
2021/03/01 01:08:29;;;;;;;8.900001;5.3;;;;;;;-2.57;50.48145;96461.19;;;;
2021/03/01 01:09:29;;;;;;;8.900001;5.3;;;;;;;-2.57;50.48145;96461.19;;;;
2021/03/01 01:10:30;;;;;;;8.900001;5.3;;;;;;;-2.57;50.48145;96461.19;;;;
2021/03/01 01:11:31;;;;;;;8.900001;5.3;;;;;;;-2.57;50.48145;96461.19;;;;
2021/03/01 01:12:31;;;;;;;8.900001;5.3;;;;;;;-2.57;50.48145;96461.19;;;;
2021/03/01 01:13:32;;;;;;;8.900001;5.3;;;;;;;-2.57;50.48145;96461.19;;;;
2021/03/01 01:14:32;;;;;;;13.85;5.550001;;;;;;;-2.67;50.5957;96469.45;;;;
2021/03/01 01:15:33;;;;;;;13.85;5.550001;;;;;;;-2.67;50.5957;96469.45;;;;
2021/03/01 01:16:35;;;;;;;13.85;5.550001;;;;;;;-2.67;50.5957;96469.45;;;;
2021/03/01 01:17:35;;;;;;;13.85;5.550001;;;;;;;-2.67;50.5957;96469.45;;;;
2021/03/01 01:18:36;;;;;;;13.85;5.550001;;;;;;;-2.67;50.5957;96469.45;;;;
2021/03/01 01:19:36;;;;;;;13.85;5.550001;;;;;;;-2.67;50.5957;96469.45;;;;
2021/03/01 01:20:37;;;;;;;13.85;5.550001;;;;;;;-2.67;50.5957;96469.45;;;;
2021/03/01 01:21:37;;;;;;;13.85;5.550001;;;;;;;-2.67;50.5957;96469.45;;;;
2021/03/01 01:22:38;;;;;;;13.85;5.550001;;;;;;;-2.67;50.5957;96469.45;;;;
2021/03/01 01:23:39;;;;;;;13.85;5.550001;;;;;;;-2.67;50.5957;96469.45;;;;
2021/03/01 01:24:39;;;;;;;8.5;5.25;;;;;;;-2.74;50.9209;96466.55;;;;
2021/03/01 01:25:40;;;;;;;8.5;5.25;;;;;;;-2.74;50.9209;96466.55;;;;
2021/03/01 01:26:41;;;;;;;8.5;5.25;;;;;;;-2.74;50.9209;96466.55;;;;
2021/03/01 01:27:41;;;;;;;8.5;5.25;;;;;;;-2.74;50.9209;96466.55;;;;
2021/03/01 01:28:42;;;;;;;8.5;5.25;;;;;;;-2.74;50.9209;96466.55;;;;
2021/03/01 01:29:42;;;;;;;8.5;5.25;;;;;;;-2.74;50.9209;96466.55;;;;
2021/03/01 01:30:43;;;;;;;8.5;5.25;;;;;;;-2.74;50.9209;96466.55;;;;
2021/03/01 01:31:43;;;;;;;8.5;5.25;;;;;;;-2.74;50.9209;96466.55;;;;
2021/03/01 01:32:44;;;;;;;8.5;5.25;;;;;;;-2.74;50.9209;96466.55;;;;
2021/03/01 01:33:45;;;;;;;8.5;5.25;;;;;;;-2.74;50.9209;96466.55;;;;
2021/03/01 01:34:45;;;;;;;8.5;5.25;;;;;;;-2.74;50.9209;96466.55;;;;
2021/03/01 01:35:46;;;;;;;11.7;6.2;;;;;;;-2.8;51.14355;96466.61;;;;
2021/03/01 01:36:46;;;;;;;11.7;6.2;;;;;;;-2.8;51.14355;96466.61;;;;
2021/03/01 01:37:47;;;;;;;11.7;6.2;;;;;;;-2.8;51.14355;96466.61;;;;
2021/03/01 01:38:48;;;;;;;11.7;6.2;;;;;;;-2.8;51.14355;96466.61;;;;
2021/03/01 01:39:49;;;;;;;11.7;6.2;;;;;;;-2.8;51.14355;96466.61;;;;
2021/03/01 01:40:50;;;;;;;11.7;6.2;;;;;;;-2.8;51.14355;96466.61;;;;
2021/03/01 01:41:50;;;;;;;11.7;6.2;;;;;;;-2.8;51.14355;96466.61;;;;
2021/03/01 01:42:51;;;;;;;11.7;6.2;;;;;;;-2.8;51.14355;96466.61;;;;
2021/03/01 01:43:52;;;;;;;11.7;6.2;;;;;;;-2.8;51.14355;96466.61;;;;
2021/03/01 01:44:53;;;;;;;11.7;6.2;;;;;;;-2.8;51.14355;96466.61;;;;
2021/03/01 01:45:53;;;;;;;11.7;6.2;;;;;;;-2.8;51.14355;96466.61;;;;
2021/03/01 01:46:54;;;;;;;11.65;5.95;;;;;;;-2.89;51.0918;96467.31;;;;
2021/03/01 01:47:54;;;;;;;11.65;5.95;;;;;;;-2.89;51.0918;96467.31;;;;
2021/03/01 01:48:56;;;;;;;11.65;5.95;;;;;;;-2.89;51.0918;96467.31;;;;
2021/03/01 01:49:57;;;;;;;11.65;5.95;;;;;;;-2.89;51.0918;96467.31;;;;
2021/03/01 01:50:57;;;;;;;11.65;5.95;;;;;;;-2.89;51.0918;96467.31;;;;
2021/03/01 01:51:58;;;;;;;11.65;5.95;;;;;;;-2.89;51.0918;96467.31;;;;
2021/03/01 01:52:58;;;;;;;11.65;5.95;;;;;;;-2.89;51.0918;96467.31;;;;
2021/03/01 01:53:59;;;;;;;11.65;5.95;;;;;;;-2.89;51.0918;96467.31;;;;
2021/03/01 01:55:00;;;;;;;11.65;5.95;;;;;;;-2.89;51.0918;96467.31;;;;
2021/03/01 01:56:02;;;;;;;11.65;5.95;;;;;;;-2.89;51.0918;96467.31;;;;
2021/03/01 01:57:02;;;;;;;12.95;6.05;;;;;;;-2.98;51.37207;96463.67;;;;
2021/03/01 01:58:04;;;;;;;12.95;6.05;;;;;;;-2.98;51.37207;96463.67;;;;
2021/03/01 01:59:05;;;;;;;12.95;6.05;;;;;;;-2.98;51.37207;96463.67;;;;
2021/03/01 02:00:06;;;;;;;12.95;6.05;;;;;;;-2.98;51.37207;96463.67;;;;
2021/03/01 02:01:09;;;;;;;12.95;6.05;;;;;;;-2.98;51.37207;96463.67;;;;
2021/03/01 02:02:09;;;;;;;12.95;6.05;;;;;;;-2.98;51.37207;96463.67;;;;
2021/03/01 02:03:11;;;;;;;12.95;6.05;;;;;;;-2.98;51.37207;96463.67;;;;
2021/03/01 02:04:29;;;;;;;12.95;6.05;;;;;;;-2.98;51.37207;96463.67;;;;
2021/03/01 02:05:33;;;;;;;12.95;6.05;;;;;;;-2.98;51.37207;96463.67;;;;
2021/03/01 02:06:37;;;;;;;12.95;6.05;;;;;;;-2.98;51.37207;96463.67;;;;
2021/03/01 02:07:45;;;;;;;13.8;6.75;;;;;;;-3.03;51.51172;96453.97;;;;
2021/03/01 02:08:53;;;;;;;13.8;6.75;;;;;;;-3.03;51.51172;96453.97;;;;
2021/03/01 02:10:04;;;;;;;13.8;6.75;;;;;;;-3.03;51.51172;96453.97;;;;
2021/03/01 02:11:09;;;;;;;13.8;6.75;;;;;;;-3.03;51.51172;96453.97;;;;
2021/03/01 02:12:19;;;;;;;13.8;6.75;;;;;;;-3.03;51.51172;96453.97;;;;
2021/03/01 02:13:22;;;;;;;13.8;6.75;;;;;;;-3.03;51.51172;96453.97;;;;
2021/03/01 02:14:30;;;;;;;13.8;6.75;;;;;;;-3.03;51.51172;96453.97;;;;
2021/03/01 02:15:41;;;;;;;13.8;6.75;;;;;;;-3.03;51.51172;96453.97;;;;
2021/03/01 02:16:47;;;;;;;13.8;6.75;;;;;;;-3.03;51.51172;96453.97;;;;
2021/03/01 02:17:48;;;;;;;13.8;6.75;;;;;;;-3.03;51.51172;96453.97;;;;
2021/03/01 02:18:49;;;;;;;10.55;6.200001;;;;;;;-3.07;51.90332;96448.58;;;;
2021/03/01 02:19:49;;;;;;;10.55;6.200001;;;;;;;-3.07;51.90332;96448.58;;;;
2021/03/01 02:20:50;;;;;;;10.55;6.200001;;;;;;;-3.07;51.90332;96448.58;;;;
2021/03/01 02:21:50;;;;;;;10.55;6.200001;;;;;;;-3.07;51.90332;96448.58;;;;
2021/03/01 02:22:51;;;;;;;10.55;6.200001;;;;;;;-3.07;51.90332;96448.58;;;;
2021/03/01 02:23:52;;;;;;;10.55;6.200001;;;;;;;-3.07;51.90332;96448.58;;;;
2021/03/01 02:24:53;;;;;;;10.55;6.200001;;;;;;;-3.07;51.90332;96448.58;;;;
2021/03/01 02:25:59;;;;;;;10.55;6.200001;;;;;;;-3.07;51.90332;96448.58;;;;
2021/03/01 02:27:03;;;;;;;10.55;6.200001;;;;;;;-3.07;51.90332;96448.58;;;;
2021/03/01 02:28:05;;;;;;;10.55;6.200001;;;;;;;-3.07;51.90332;96448.58;;;;
2021/03/01 02:29:08;;;;;;;10.65;5.7;;;;;;;-3.02;52.03418;96444.65;;;;
2021/03/01 02:30:13;;;;;;;10.65;5.7;;;;;;;-3.02;52.03418;96444.65;;;;
2021/03/01 02:31:21;;;;;;;10.65;5.7;;;;;;;-3.02;52.03418;96444.65;;;;
2021/03/01 02:32:25;;;;;;;10.65;5.7;;;;;;;-3.02;52.03418;96444.65;;;;
2021/03/01 02:33:28;;;;;;;10.65;5.7;;;;;;;-3.02;52.03418;96444.65;;;;
2021/03/01 02:34:32;;;;;;;10.65;5.7;;;;;;;-3.02;52.03418;96444.65;;;;
2021/03/01 02:35:36;;;;;;;10.65;5.7;;;;;;;-3.02;52.03418;96444.65;;;;
2021/03/01 02:36:41;;;;;;;10.65;5.7;;;;;;;-3.02;52.03418;96444.65;;;;
2021/03/01 02:37:46;;;;;;;10.65;5.7;;;;;;;-3.02;52.03418;96444.65;;;;
2021/03/01 02:38:48;;;;;;;10.65;5.7;;;;;;;-3.02;52.03418;96444.65;;;;
2021/03/01 02:39:49;;;;;;;11.4;5.65;;;;;;;-3;52.01563;96430.83;;;;
2021/03/01 02:40:51;;;;;;;11.4;5.65;;;;;;;-3;52.01563;96430.83;;;;
2021/03/01 02:41:53;;;;;;;11.4;5.65;;;;;;;-3;52.01563;96430.83;;;;
2021/03/01 02:42:55;;;;;;;11.4;5.65;;;;;;;-3;52.01563;96430.83;;;;
2021/03/01 02:43:57;;;;;;;11.4;5.65;;;;;;;-3;52.01563;96430.83;;;;
2021/03/01 02:44:58;;;;;;;11.4;5.65;;;;;;;-3;52.01563;96430.83;;;;
2021/03/01 02:46:00;;;;;;;11.4;5.65;;;;;;;-3;52.01563;96430.83;;;;
2021/03/01 02:47:01;;;;;;;11.4;5.65;;;;;;;-3;52.01563;96430.83;;;;
2021/03/01 02:48:02;;;;;;;11.4;5.65;;;;;;;-3;52.01563;96430.83;;;;
2021/03/01 02:49:03;;;;;;;11.4;5.65;;;;;;;-3;52.01563;96430.83;;;;
2021/03/01 02:50:06;;;;;;;9.549999;5.25;;;;;;;-3.09;52.12012;96433.75;;;;
2021/03/01 02:51:09;;;;;;;9.549999;5.25;;;;;;;-3.09;52.12012;96433.75;;;;
2021/03/01 02:52:11;;;;;;;9.549999;5.25;;;;;;;-3.09;52.12012;96433.75;;;;
2021/03/01 02:53:13;;;;;;;9.549999;5.25;;;;;;;-3.09;52.12012;96433.75;;;;
2021/03/01 02:54:14;;;;;;;9.549999;5.25;;;;;;;-3.09;52.12012;96433.75;;;;
2021/03/01 02:55:16;;;;;;;9.549999;5.25;;;;;;;-3.09;52.12012;96433.75;;;;
2021/03/01 02:56:18;;;;;;;9.549999;5.25;;;;;;;-3.09;52.12012;96433.75;;;;
2021/03/01 02:57:20;;;;;;;9.549999;5.25;;;;;;;-3.09;52.12012;96433.75;;;;
2021/03/01 02:58:23;;;;;;;9.549999;5.25;;;;;;;-3.09;52.12012;96433.75;;;;
2021/03/01 02:59:25;;;;;;;9.549999;5.25;;;;;;;-3.09;52.12012;96433.75;;;;
2021/03/01 03:00:27;;;;;;;9.549999;5.25;;;;;;;-3.09;52.12012;96433.75;;;;
2021/03/01 03:01:28;;;;;;;8.550001;5;;;;;;;-3.1;52.12891;96441.39;;;;
2021/03/01 03:02:30;;;;;;;8.550001;5;;;;;;;-3.1;52.12891;96441.39;;;;
2021/03/01 03:03:31;;;;;;;8.550001;5;;;;;;;-3.1;52.12891;96441.39;;;;
2021/03/01 03:04:33;;;;;;;8.550001;5;;;;;;;-3.1;52.12891;96441.39;;;;
2021/03/01 03:05:36;;;;;;;8.550001;5;;;;;;;-3.1;52.12891;96441.39;;;;
2021/03/01 03:06:37;;;;;;;8.550001;5;;;;;;;-3.1;52.12891;96441.39;;;;
2021/03/01 03:07:38;;;;;;;8.550001;5;;;;;;;-3.1;52.12891;96441.39;;;;
2021/03/01 03:08:42;;;;;;;8.550001;5;;;;;;;-3.1;52.12891;96441.39;;;;
2021/03/01 03:09:43;;;;;;;8.550001;5;;;;;;;-3.1;52.12891;96441.39;;;;
2021/03/01 03:10:46;;;;;;;8.550001;5;;;;;;;-3.1;52.12891;96441.39;;;;
2021/03/01 03:11:50;;;;;;;10.75;5.949999;;;;;;;-3.22;52.25977;96441.49;;;;
2021/03/01 03:12:54;;;;;;;10.75;5.949999;;;;;;;-3.22;52.25977;96441.49;;;;
2021/03/01 03:13:57;;;;;;;10.75;5.949999;;;;;;;-3.22;52.25977;96441.49;;;;
2021/03/01 03:14:58;;;;;;;10.75;5.949999;;;;;;;-3.22;52.25977;96441.49;;;;
2021/03/01 03:16:01;;;;;;;10.75;5.949999;;;;;;;-3.22;52.25977;96441.49;;;;
2021/03/01 03:17:03;;;;;;;10.75;5.949999;;;;;;;-3.22;52.25977;96441.49;;;;
2021/03/01 03:18:03;;;;;;;10.75;5.949999;;;;;;;-3.22;52.25977;96441.49;;;;
2021/03/01 03:19:07;;;;;;;10.75;5.949999;;;;;;;-3.22;52.25977;96441.49;;;;
2021/03/01 03:20:09;;;;;;;10.75;5.949999;;;;;;;-3.22;52.25977;96441.49;;;;
2021/03/01 03:21:10;;;;;;;10.75;5.949999;;;;;;;-3.22;52.25977;96441.49;;;;
2021/03/01 03:22:12;;;;;;;12.3;7.45;;;;;;;-3.3;52.54199;96436.4;;;;
2021/03/01 03:23:12;;;;;;;12.3;7.45;;;;;;;-3.3;52.54199;96436.4;;;;
2021/03/01 03:24:13;;;;;;;12.3;7.45;;;;;;;-3.3;52.54199;96436.4;;;;
2021/03/01 03:25:13;;;;;;;12.3;7.45;;;;;;;-3.3;52.54199;96436.4;;;;
2021/03/01 03:26:14;;;;;;;12.3;7.45;;;;;;;-3.3;52.54199;96436.4;;;;
2021/03/01 03:27:15;;;;;;;12.3;7.45;;;;;;;-3.3;52.54199;96436.4;;;;
2021/03/01 03:28:16;;;;;;;12.3;7.45;;;;;;;-3.3;52.54199;96436.4;;;;
2021/03/01 03:29:16;;;;;;;12.3;7.45;;;;;;;-3.3;52.54199;96436.4;;;;
2021/03/01 03:30:17;;;;;;;12.3;7.45;;;;;;;-3.3;52.54199;96436.4;;;;
2021/03/01 03:31:19;;;;;;;12.3;7.45;;;;;;;-3.3;52.54199;96436.4;;;;
2021/03/01 03:32:19;;;;;;;12.3;7.45;;;;;;;-3.3;52.54199;96436.4;;;;
2021/03/01 03:33:20;;;;;;;10.9;5.950001;;;;;;;-3.31;53.94824;96440.83;;;;
2021/03/01 03:34:21;;;;;;;10.9;5.950001;;;;;;;-3.31;53.94824;96440.83;;;;
2021/03/01 03:35:22;;;;;;;10.9;5.950001;;;;;;;-3.31;53.94824;96440.83;;;;
2021/03/01 03:36:23;;;;;;;10.9;5.950001;;;;;;;-3.31;53.94824;96440.83;;;;
2021/03/01 03:37:29;;;;;;;10.9;5.950001;;;;;;;-3.31;53.94824;96440.83;;;;
2021/03/01 03:38:36;;;;;;;10.9;5.950001;;;;;;;-3.31;53.94824;96440.83;;;;
2021/03/01 03:39:42;;;;;;;10.9;5.950001;;;;;;;-3.31;53.94824;96440.83;;;;
2021/03/01 03:40:46;;;;;;;10.9;5.950001;;;;;;;-3.31;53.94824;96440.83;;;;
2021/03/01 03:41:49;;;;;;;10.9;5.950001;;;;;;;-3.31;53.94824;96440.83;;;;
2021/03/01 03:42:52;;;;;;;10.9;5.950001;;;;;;;-3.31;53.94824;96440.83;;;;
2021/03/01 03:43:53;;;;;;;9.7;5.25;;;;;;;-3.31;53.71973;96450.58;;;;
2021/03/01 03:44:55;;;;;;;9.7;5.25;;;;;;;-3.31;53.71973;96450.58;;;;
2021/03/01 03:45:57;;;;;;;9.7;5.25;;;;;;;-3.31;53.71973;96450.58;;;;
2021/03/01 03:47:01;;;;;;;9.7;5.25;;;;;;;-3.31;53.71973;96450.58;;;;
2021/03/01 03:48:05;;;;;;;9.7;5.25;;;;;;;-3.31;53.71973;96450.58;;;;
2021/03/01 03:49:06;;;;;;;9.7;5.25;;;;;;;-3.31;53.71973;96450.58;;;;
2021/03/01 03:50:09;;;;;;;9.7;5.25;;;;;;;-3.31;53.71973;96450.58;;;;
2021/03/01 03:51:11;;;;;;;9.7;5.25;;;;;;;-3.31;53.71973;96450.58;;;;
2021/03/01 03:52:13;;;;;;;9.7;5.25;;;;;;;-3.31;53.71973;96450.58;;;;
2021/03/01 03:53:15;;;;;;;9.7;5.25;;;;;;;-3.31;53.71973;96450.58;;;;
2021/03/01 03:54:17;;;;;;;8.95;5.500001;;;;;;;-3.36;53.69141;96443.48;;;;
2021/03/01 03:55:20;;;;;;;8.95;5.500001;;;;;;;-3.36;53.69141;96443.48;;;;
2021/03/01 03:56:22;;;;;;;8.95;5.500001;;;;;;;-3.36;53.69141;96443.48;;;;
2021/03/01 03:57:25;;;;;;;8.95;5.500001;;;;;;;-3.36;53.69141;96443.48;;;;
2021/03/01 03:58:31;;;;;;;8.95;5.500001;;;;;;;-3.36;53.69141;96443.48;;;;
2021/03/01 03:59:36;;;;;;;8.95;5.500001;;;;;;;-3.36;53.69141;96443.48;;;;
2021/03/01 04:00:39;;;;;;;8.95;5.500001;;;;;;;-3.36;53.69141;96443.48;;;;
2021/03/01 04:01:40;;;;;;;8.95;5.500001;;;;;;;-3.36;53.69141;96443.48;;;;
2021/03/01 04:02:41;;;;;;;8.95;5.500001;;;;;;;-3.36;53.69141;96443.48;;;;
2021/03/01 04:03:43;;;;;;;8.95;5.500001;;;;;;;-3.36;53.69141;96443.48;;;;
2021/03/01 04:04:45;;;;;;;12.25;5.7;;;;;;;-3.41;53.73828;96455.75;;;;
2021/03/01 04:05:46;;;;;;;12.25;5.7;;;;;;;-3.41;53.73828;96455.75;;;;
2021/03/01 04:06:49;;;;;;;12.25;5.7;;;;;;;-3.41;53.73828;96455.75;;;;
2021/03/01 04:07:51;;;;;;;12.25;5.7;;;;;;;-3.41;53.73828;96455.75;;;;
2021/03/01 04:08:54;;;;;;;12.25;5.7;;;;;;;-3.41;53.73828;96455.75;;;;
2021/03/01 04:09:56;;;;;;;12.25;5.7;;;;;;;-3.41;53.73828;96455.75;;;;
2021/03/01 04:10:58;;;;;;;12.25;5.7;;;;;;;-3.41;53.73828;96455.75;;;;
2021/03/01 04:11:59;;;;;;;12.25;5.7;;;;;;;-3.41;53.73828;96455.75;;;;
2021/03/01 04:13:01;;;;;;;12.25;5.7;;;;;;;-3.41;53.73828;96455.75;;;;
2021/03/01 04:14:07;;;;;;;12.25;5.7;;;;;;;-3.41;53.73828;96455.75;;;;
2021/03/01 04:15:09;;;;;;;12.25;5.7;;;;;;;-3.41;53.73828;96455.75;;;;
2021/03/01 04:16:14;;;;;;;12.5;6.5;;;;;;;-3.43;53.9209;96451.11;;;;
2021/03/01 04:17:17;;;;;;;12.5;6.5;;;;;;;-3.43;53.9209;96451.11;;;;
2021/03/01 04:18:18;;;;;;;12.5;6.5;;;;;;;-3.43;53.9209;96451.11;;;;
2021/03/01 04:19:23;;;;;;;12.5;6.5;;;;;;;-3.43;53.9209;96451.11;;;;
2021/03/01 04:20:25;;;;;;;12.5;6.5;;;;;;;-3.43;53.9209;96451.11;;;;
2021/03/01 04:21:27;;;;;;;12.5;6.5;;;;;;;-3.43;53.9209;96451.11;;;;
2021/03/01 04:22:27;;;;;;;12.5;6.5;;;;;;;-3.43;53.9209;96451.11;;;;
2021/03/01 04:23:29;;;;;;;12.5;6.5;;;;;;;-3.43;53.9209;96451.11;;;;
2021/03/01 04:24:31;;;;;;;12.5;6.5;;;;;;;-3.43;53.9209;96451.11;;;;
2021/03/01 04:25:35;;;;;;;12.5;6.5;;;;;;;-3.43;53.9209;96451.11;;;;
2021/03/01 04:26:37;;;;;;;12.9;6.900001;;;;;;;-3.47;53.83398;96462.4;;;;
2021/03/01 04:27:38;;;;;;;12.9;6.900001;;;;;;;-3.47;53.83398;96462.4;;;;
2021/03/01 04:28:40;;;;;;;12.9;6.900001;;;;;;;-3.47;53.83398;96462.4;;;;
2021/03/01 04:29:41;;;;;;;12.9;6.900001;;;;;;;-3.47;53.83398;96462.4;;;;
2021/03/01 04:30:42;;;;;;;12.9;6.900001;;;;;;;-3.47;53.83398;96462.4;;;;
2021/03/01 04:31:44;;;;;;;12.9;6.900001;;;;;;;-3.47;53.83398;96462.4;;;;
2021/03/01 04:32:47;;;;;;;12.9;6.900001;;;;;;;-3.47;53.83398;96462.4;;;;
2021/03/01 04:33:49;;;;;;;12.9;6.900001;;;;;;;-3.47;53.83398;96462.4;;;;
2021/03/01 04:34:52;;;;;;;12.9;6.900001;;;;;;;-3.47;53.83398;96462.4;;;;
2021/03/01 04:35:55;;;;;;;12.9;6.900001;;;;;;;-3.47;53.83398;96462.4;;;;
2021/03/01 04:36:56;;;;;;;14.65;8.25;;;;;;;-3.53;53.94043;96453.24;;;;
2021/03/01 04:37:57;;;;;;;14.65;8.25;;;;;;;-3.53;53.94043;96453.24;;;;
2021/03/01 04:38:57;;;;;;;14.65;8.25;;;;;;;-3.53;53.94043;96453.24;;;;
2021/03/01 04:39:59;;;;;;;14.65;8.25;;;;;;;-3.53;53.94043;96453.24;;;;
2021/03/01 04:40:59;;;;;;;14.65;8.25;;;;;;;-3.53;53.94043;96453.24;;;;
2021/03/01 04:42:00;;;;;;;14.65;8.25;;;;;;;-3.53;53.94043;96453.24;;;;
2021/03/01 04:43:02;;;;;;;14.65;8.25;;;;;;;-3.53;53.94043;96453.24;;;;
2021/03/01 04:44:07;;;;;;;14.65;8.25;;;;;;;-3.53;53.94043;96453.24;;;;
2021/03/01 04:45:10;;;;;;;14.65;8.25;;;;;;;-3.53;53.94043;96453.24;;;;
2021/03/01 04:46:14;;;;;;;14.65;8.25;;;;;;;-3.53;53.94043;96453.24;;;;
2021/03/01 04:47:16;;;;;;;14.65;8.25;;;;;;;-3.53;53.94043;96453.24;;;;
2021/03/01 04:48:17;;;;;;;14.55;8.800001;;;;;;;-3.57;54.9248;96455.29;;;;
2021/03/01 04:49:19;;;;;;;14.55;8.800001;;;;;;;-3.57;54.9248;96455.29;;;;
2021/03/01 04:50:22;;;;;;;14.55;8.800001;;;;;;;-3.57;54.9248;96455.29;;;;
2021/03/01 04:51:24;;;;;;;14.55;8.800001;;;;;;;-3.57;54.9248;96455.29;;;;
2021/03/01 04:52:25;;;;;;;14.55;8.800001;;;;;;;-3.57;54.9248;96455.29;;;;
2021/03/01 04:53:27;;;;;;;14.55;8.800001;;;;;;;-3.57;54.9248;96455.29;;;;
2021/03/01 04:54:29;;;;;;;14.55;8.800001;;;;;;;-3.57;54.9248;96455.29;;;;
2021/03/01 04:55:30;;;;;;;14.55;8.800001;;;;;;;-3.57;54.9248;96455.29;;;;
2021/03/01 04:56:32;;;;;;;14.55;8.800001;;;;;;;-3.57;54.9248;96455.29;;;;
2021/03/01 04:57:32;;;;;;;14.55;8.800001;;;;;;;-3.57;54.9248;96455.29;;;;
2021/03/01 04:58:34;;;;;;;15.2;8.950001;;;;;;;-3.59;55.67188;96454.14;;;;
2021/03/01 04:59:37;;;;;;;15.2;8.950001;;;;;;;-3.59;55.67188;96454.14;;;;
2021/03/01 05:00:38;;;;;;;15.2;8.950001;;;;;;;-3.59;55.67188;96454.14;;;;
2021/03/01 05:01:39;;;;;;;15.2;8.950001;;;;;;;-3.59;55.67188;96454.14;;;;
2021/03/01 05:02:40;;;;;;;15.2;8.950001;;;;;;;-3.59;55.67188;96454.14;;;;
2021/03/01 05:03:42;;;;;;;15.2;8.950001;;;;;;;-3.59;55.67188;96454.14;;;;
2021/03/01 05:04:42;;;;;;;15.2;8.950001;;;;;;;-3.59;55.67188;96454.14;;;;
2021/03/01 05:05:43;;;;;;;15.2;8.950001;;;;;;;-3.59;55.67188;96454.14;;;;
2021/03/01 05:06:44;;;;;;;15.2;8.950001;;;;;;;-3.59;55.67188;96454.14;;;;
2021/03/01 05:07:46;;;;;;;15.2;8.950001;;;;;;;-3.59;55.67188;96454.14;;;;
2021/03/01 05:08:47;;;;;;;15.2;8.950001;;;;;;;-3.59;55.67188;96454.14;;;;
2021/03/01 05:09:49;;;;;;;14.75;9.250001;;;;;;;-3.62;56.375;96444.73;;;;
2021/03/01 05:10:51;;;;;;;14.75;9.250001;;;;;;;-3.62;56.375;96444.73;;;;
2021/03/01 05:11:53;;;;;;;14.75;9.250001;;;;;;;-3.62;56.375;96444.73;;;;
2021/03/01 05:12:54;;;;;;;14.75;9.250001;;;;;;;-3.62;56.375;96444.73;;;;
2021/03/01 05:13:54;;;;;;;14.75;9.250001;;;;;;;-3.62;56.375;96444.73;;;;
2021/03/01 05:14:55;;;;;;;14.75;9.250001;;;;;;;-3.62;56.375;96444.73;;;;
2021/03/01 05:15:55;;;;;;;14.75;9.250001;;;;;;;-3.62;56.375;96444.73;;;;
2021/03/01 05:16:56;;;;;;;14.75;9.250001;;;;;;;-3.62;56.375;96444.73;;;;
2021/03/01 05:17:56;;;;;;;14.75;9.250001;;;;;;;-3.62;56.375;96444.73;;;;
2021/03/01 05:18:57;;;;;;;14.75;9.250001;;;;;;;-3.62;56.375;96444.73;;;;
2021/03/01 05:19:59;;;;;;;17.3;9.949999;;;;;;;-3.59;56.94141;96446.23;;;;
2021/03/01 05:20:59;;;;;;;17.3;9.949999;;;;;;;-3.59;56.94141;96446.23;;;;
2021/03/01 05:22:00;;;;;;;17.3;9.949999;;;;;;;-3.59;56.94141;96446.23;;;;
2021/03/01 05:23:00;;;;;;;17.3;9.949999;;;;;;;-3.59;56.94141;96446.23;;;;
2021/03/01 05:24:01;;;;;;;17.3;9.949999;;;;;;;-3.59;56.94141;96446.23;;;;
2021/03/01 05:25:02;;;;;;;17.3;9.949999;;;;;;;-3.59;56.94141;96446.23;;;;
2021/03/01 05:26:03;;;;;;;17.3;9.949999;;;;;;;-3.59;56.94141;96446.23;;;;
2021/03/01 05:27:04;;;;;;;17.3;9.949999;;;;;;;-3.59;56.94141;96446.23;;;;
2021/03/01 05:28:05;;;;;;;17.3;9.949999;;;;;;;-3.59;56.94141;96446.23;;;;
2021/03/01 05:29:06;;;;;;;17.3;9.949999;;;;;;;-3.59;56.94141;96446.23;;;;
2021/03/01 05:30:06;;;;;;;17.3;9.949999;;;;;;;-3.59;56.94141;96446.23;;;;
2021/03/01 05:31:09;;;;;;;14.7;9.499999;;;;;;;-3.57;57.50586;96444.78;;;;
2021/03/01 05:32:10;;;;;;;14.7;9.499999;;;;;;;-3.57;57.50586;96444.78;;;;
2021/03/01 05:33:11;;;;;;;14.7;9.499999;;;;;;;-3.57;57.50586;96444.78;;;;
2021/03/01 05:34:11;;;;;;;14.7;9.499999;;;;;;;-3.57;57.50586;96444.78;;;;
2021/03/01 05:35:12;;;;;;;14.7;9.499999;;;;;;;-3.57;57.50586;96444.78;;;;
2021/03/01 05:36:13;;;;;;;14.7;9.499999;;;;;;;-3.57;57.50586;96444.78;;;;
2021/03/01 05:37:14;;;;;;;14.7;9.499999;;;;;;;-3.57;57.50586;96444.78;;;;
2021/03/01 05:38:14;;;;;;;14.7;9.499999;;;;;;;-3.57;57.50586;96444.78;;;;
2021/03/01 05:39:15;;;;;;;14.7;9.499999;;;;;;;-3.57;57.50586;96444.78;;;;
2021/03/01 05:40:15;;;;;;;14.7;9.499999;;;;;;;-3.57;57.50586;96444.78;;;;
2021/03/01 05:41:16;;;;;;;13.75;8.650001;;;;;;;-3.66;57.8457;96442.88;;;;